createdAt,value
2018-08-13T00:00:55.178Z,36.30
2018-08-13T00:03:23.352Z,36.40
2018-08-13T00:05:51.490Z,36.90
2018-08-13T00:08:19.667Z,36.60
2018-08-13T00:10:47.823Z,36.30
2018-08-13T00:13:16.146Z,36.20
2018-08-13T00:15:44.311Z,37.70
2018-08-13T00:18:13.168Z,36.70
2018-08-13T00:20:41.306Z,37.40
2018-08-13T00:23:09.676Z,37.40
2018-08-13T00:25:37.833Z,37.00
2018-08-13T00:28:07.311Z,36.50
2018-08-13T00:30:35.730Z,36.80
2018-08-13T00:33:03.919Z,36.90
2018-08-13T00:35:32.751Z,37.10
2018-08-13T00:38:00.900Z,37.30
2018-08-13T00:40:29.084Z,37.60
2018-08-13T00:42:57.243Z,37.60
2018-08-13T00:45:25.360Z,37.50
2018-08-13T00:47:53.520Z,38.70
2018-08-13T00:50:21.673Z,38.10
2018-08-13T00:52:49.862Z,38.40
2018-08-13T00:55:18.004Z,38.60
2018-08-13T00:57:46.145Z,38.40
2018-08-13T01:00:16.025Z,38.70
2018-08-13T01:02:44.861Z,38.90
2018-08-13T01:05:13.275Z,38.50
2018-08-13T01:07:41.433Z,38.70
2018-08-13T01:10:12.778Z,38.90
2018-08-13T01:12:41.186Z,38.80
2018-08-13T01:15:11.155Z,38.30
2018-08-13T01:17:40.766Z,39.10
2018-08-13T01:20:11.027Z,38.30
2018-08-13T01:22:39.479Z,38.30
2018-08-13T01:25:09.791Z,38.30
2018-08-13T01:27:37.995Z,37.80
2018-08-13T01:30:06.423Z,38.70
2018-08-13T01:32:34.687Z,38.90
2018-08-13T01:35:02.983Z,38.90
2018-08-13T01:37:31.147Z,39.30
2018-08-13T01:39:59.283Z,39.20
2018-08-13T01:42:27.435Z,39.30
2018-08-13T01:44:55.610Z,38.70
2018-08-13T01:47:23.774Z,39.10
2018-08-13T01:49:51.941Z,37.90
2018-08-13T01:52:20.123Z,38.10
2018-08-13T01:54:48.305Z,38.40
2018-08-13T01:57:16.695Z,38.50
2018-08-13T01:59:45.575Z,38.80
2018-08-13T02:02:14.191Z,39.40
2018-08-13T02:04:42.743Z,39.60
2018-08-13T02:07:11.124Z,39.70
2018-08-13T02:09:40.735Z,40.10
2018-08-13T02:12:09.789Z,40.30
2018-08-13T02:14:38.087Z,40.40
2018-08-13T02:17:06.483Z,40.30
2018-08-13T02:19:34.712Z,40.40
2018-08-13T02:22:03.083Z,40.90
2018-08-13T02:24:31.498Z,40.80
2018-08-13T02:26:59.661Z,40.90
2018-08-13T02:29:28.079Z,40.80
2018-08-13T02:31:56.841Z,40.70
2018-08-13T02:34:25.048Z,40.90
2018-08-13T02:36:53.283Z,40.90
2018-08-13T02:39:21.542Z,41.20
2018-08-13T02:41:49.628Z,41.40
2018-08-13T02:44:17.863Z,41.30
2018-08-13T02:46:46.012Z,41.00
2018-08-13T02:49:14.129Z,41.60
2018-08-13T02:51:42.283Z,40.70
2018-08-13T02:54:10.422Z,40.70
2018-08-13T02:56:38.561Z,40.80
2018-08-13T02:59:06.684Z,40.60
2018-08-13T03:01:34.825Z,40.50
2018-08-13T03:04:02.978Z,40.60
2018-08-13T03:06:31.149Z,40.60
2018-08-13T03:08:59.322Z,40.60
2018-08-13T03:11:27.480Z,40.40
2018-08-13T03:13:55.647Z,40.20
2018-08-13T03:16:24.648Z,40.70
2018-08-13T03:18:53.508Z,40.20
2018-08-13T03:21:21.760Z,39.90
2018-08-13T03:23:49.900Z,40.50
2018-08-13T03:26:18.253Z,40.50
2018-08-13T03:28:46.376Z,40.40
2018-08-13T03:31:14.551Z,40.50
2018-08-13T03:33:42.703Z,40.80
2018-08-13T03:36:10.823Z,41.40
2018-08-13T03:38:38.953Z,41.20
2018-08-13T03:41:07.116Z,41.40
2018-08-13T03:43:35.285Z,41.20
2018-08-13T03:46:03.519Z,41.80
2018-08-13T03:48:31.864Z,41.80
2018-08-13T03:50:59.998Z,42.10
2018-08-13T03:53:28.989Z,41.90
2018-08-13T03:55:57.136Z,42.40
2018-08-13T03:58:25.287Z,42.30
2018-08-13T04:00:53.466Z,42.70
2018-08-13T04:03:21.636Z,43.30
2018-08-13T04:05:49.765Z,43.30
2018-08-13T04:08:17.930Z,43.30
2018-08-13T04:10:46.066Z,42.50
2018-08-13T04:13:14.237Z,42.70
2018-08-13T04:15:42.364Z,42.50
2018-08-13T04:18:10.546Z,42.50
2018-08-13T04:20:38.661Z,43.00
2018-08-13T04:23:06.768Z,43.30
2018-08-13T04:25:34.887Z,43.40
2018-08-13T04:30:37.696Z,43.30
2018-08-13T04:33:06.228Z,43.10
2018-08-13T04:35:34.343Z,43.80
2018-08-13T04:38:02.511Z,42.80
2018-08-13T04:40:30.649Z,43.00
2018-08-13T04:42:58.790Z,41.80
2018-08-13T04:45:27.540Z,41.80
2018-08-13T04:47:56.152Z,41.70
2018-08-13T04:50:24.308Z,41.60
2018-08-13T04:52:52.564Z,41.70
2018-08-13T04:55:21.337Z,41.80
2018-08-13T04:57:50.374Z,41.40
2018-08-13T05:00:18.545Z,41.40
2018-08-13T05:02:46.691Z,41.40
2018-08-13T05:05:14.830Z,41.00
2018-08-13T05:07:42.962Z,40.70
2018-08-13T05:10:11.716Z,41.00
2018-08-13T05:12:40.611Z,41.40
2018-08-13T05:15:09.803Z,41.60
2018-08-13T05:17:37.994Z,41.50
2018-08-13T05:20:08.342Z,41.50
2018-08-13T05:22:36.495Z,41.90
2018-08-13T05:25:05.883Z,42.20
2018-08-13T05:27:34.050Z,42.70
2018-08-13T05:30:02.308Z,44.00
2018-08-13T05:32:30.716Z,43.30
2018-08-13T05:34:59.360Z,43.60
2018-08-13T05:37:27.726Z,43.50
2018-08-13T05:39:56.110Z,44.00
2018-08-13T05:42:24.746Z,44.00
2018-08-13T05:44:58.065Z,44.00
2018-08-13T05:47:26.183Z,44.40
2018-08-13T05:49:54.337Z,44.90
2018-08-13T05:52:22.461Z,45.50
2018-08-13T05:54:50.610Z,45.80
2018-08-13T05:57:18.719Z,47.00
2018-08-13T05:59:46.843Z,47.30
2018-08-13T06:02:15.028Z,48.10
2018-08-13T06:04:43.141Z,48.20
2018-08-13T06:07:11.278Z,47.90
2018-08-13T06:09:39.406Z,48.30
2018-08-13T06:12:07.529Z,49.00
2018-08-13T06:14:35.691Z,50.00
2018-08-13T06:17:03.846Z,50.20
2018-08-13T06:19:32.001Z,51.20
2018-08-13T06:22:00.157Z,51.70
2018-08-13T06:24:28.402Z,52.30
2018-08-13T06:26:56.526Z,53.20
2018-08-13T06:29:24.643Z,53.20
2018-08-13T06:31:53.663Z,53.80
2018-08-13T06:34:21.822Z,54.20
2018-08-13T06:36:49.942Z,55.00
2018-08-13T06:39:18.071Z,55.30
2018-08-13T06:41:46.187Z,56.00
2018-08-13T06:44:14.355Z,57.90
2018-08-13T06:46:42.495Z,58.30
2018-08-13T06:49:11.906Z,59.50
2018-08-13T06:51:40.321Z,60.60
2018-08-13T06:54:08.460Z,64.70
2018-08-13T06:56:36.664Z,66.60
2018-08-13T06:59:04.775Z,71.10
2018-08-13T07:01:32.912Z,73.60
2018-08-13T07:04:01.055Z,77.60
2018-08-13T07:06:29.195Z,76.20
2018-08-13T07:08:57.350Z,78.80
2018-08-13T07:11:25.492Z,76.10
2018-08-13T07:13:53.870Z,76.20
2018-08-13T07:16:22.026Z,79.60
2018-08-13T07:18:50.166Z,81.00
2018-08-13T07:21:18.319Z,83.00
2018-08-13T07:23:46.465Z,83.20
2018-08-13T07:26:14.587Z,80.70
2018-08-13T07:28:42.715Z,81.90
2018-08-13T07:31:10.879Z,83.40
2018-08-13T07:33:39.027Z,84.70
2018-08-13T07:36:07.191Z,85.80
2018-08-13T07:38:35.341Z,86.80
2018-08-13T07:41:03.499Z,87.40
2018-08-13T07:43:31.628Z,88.20
2018-08-13T07:45:59.794Z,88.60
2018-08-13T07:48:27.992Z,87.60
2018-08-13T07:50:56.144Z,87.10
2018-08-13T07:53:24.296Z,85.60
2018-08-13T07:55:52.482Z,86.20
2018-08-13T07:58:20.635Z,87.30
2018-08-13T08:00:48.763Z,88.00
2018-08-13T08:03:16.894Z,89.30
2018-08-13T08:05:45.035Z,88.60
2018-08-13T08:08:13.182Z,88.00
2018-08-13T08:10:41.316Z,85.50
2018-08-13T08:13:10.031Z,84.20
2018-08-13T08:15:38.199Z,82.60
2018-08-13T08:18:06.386Z,84.10
2018-08-13T08:20:34.518Z,83.20
2018-08-13T08:23:02.660Z,84.60
2018-08-13T08:25:30.798Z,84.40
2018-08-13T08:27:59.012Z,85.00
2018-08-13T08:30:27.148Z,85.40
2018-08-13T08:32:55.302Z,86.80
2018-08-13T08:35:23.440Z,87.90
2018-08-13T08:37:51.569Z,88.90
2018-08-13T08:40:20.788Z,88.50
2018-08-13T08:42:49.491Z,88.10
2018-08-13T08:45:21.111Z,87.20
2018-08-13T08:47:49.629Z,89.10
2018-08-13T08:50:17.814Z,90.40
2018-08-13T08:52:46.888Z,90.60
2018-08-13T08:55:16.079Z,90.80
2018-08-13T08:57:44.367Z,90.30
2018-08-13T09:00:15.015Z,90.70
2018-08-13T09:02:43.163Z,89.80
2018-08-13T09:05:11.348Z,90.00
2018-08-13T09:07:40.142Z,90.20
2018-08-13T09:10:08.636Z,89.90
2018-08-13T09:12:36.991Z,90.80
2018-08-13T09:15:05.663Z,90.20
2018-08-13T09:17:45.405Z,90.20
2018-08-13T09:20:25.183Z,90.30
2018-08-13T09:23:05.639Z,90.60
2018-08-13T09:25:45.090Z,89.70
2018-08-13T09:28:25.653Z,89.30
2018-08-13T09:31:05.663Z,88.00
2018-08-13T09:34:47.966Z,86.20
2018-08-13T09:37:16.113Z,85.00
2018-08-13T09:39:44.280Z,87.10
2018-08-13T09:42:12.459Z,86.50
2018-08-13T09:44:40.665Z,85.00
2018-08-13T09:47:08.823Z,85.30
2018-08-13T09:49:36.991Z,84.90
2018-08-13T09:52:05.745Z,81.60
2018-08-13T09:54:33.969Z,80.50
2018-08-13T09:57:02.146Z,75.60
2018-08-13T09:59:30.298Z,71.10
2018-08-13T10:01:58.472Z,64.10
2018-08-13T10:04:26.686Z,58.50
2018-08-13T10:06:54.819Z,59.00
2018-08-13T10:09:23.143Z,59.40
2018-08-13T10:11:51.227Z,60.60
2018-08-13T10:14:19.623Z,60.90
2018-08-13T10:16:47.828Z,61.50
2018-08-13T10:19:16.923Z,61.00
2018-08-13T10:21:45.482Z,62.50
2018-08-13T10:24:13.822Z,61.70
2018-08-13T10:26:42.592Z,64.10
2018-08-13T10:29:11.092Z,66.20
2018-08-13T10:31:39.283Z,69.00
2018-08-13T10:34:07.527Z,69.60
2018-08-13T10:36:35.789Z,68.70
2018-08-13T10:39:06.224Z,66.60
2018-08-13T10:41:34.397Z,67.60
2018-08-13T10:44:02.593Z,68.30
2018-08-13T10:46:30.753Z,71.20
2018-08-13T10:48:58.948Z,71.00
2018-08-13T10:51:27.107Z,71.00
2018-08-13T10:53:55.222Z,68.80
2018-08-13T10:56:23.383Z,68.10
2018-08-13T10:58:51.539Z,66.30
2018-08-13T11:01:19.708Z,65.90
2018-08-13T11:03:48.032Z,62.60
2018-08-13T11:06:17.004Z,61.20
2018-08-13T11:08:45.154Z,61.80
2018-08-13T11:11:13.291Z,62.00
2018-08-13T11:13:41.453Z,59.90
2018-08-13T11:16:09.587Z,58.30
2018-08-13T11:18:37.710Z,55.40
2018-08-13T11:21:05.911Z,55.20
2018-08-13T11:23:34.057Z,56.20
2018-08-13T11:26:02.203Z,56.00
2018-08-13T11:28:30.374Z,56.80
2018-08-13T11:30:58.508Z,58.00
2018-08-13T11:33:26.644Z,58.50
2018-08-13T11:35:54.788Z,59.80
2018-08-13T11:38:22.936Z,61.20
2018-08-13T11:40:51.133Z,64.90
2018-08-13T11:43:19.286Z,68.50
2018-08-13T11:45:47.402Z,72.30
2018-08-13T11:48:15.539Z,73.50
2018-08-13T11:50:43.669Z,75.50
2018-08-13T11:53:11.844Z,77.10
2018-08-13T11:55:39.971Z,85.70
2018-08-13T11:58:08.093Z,88.70
2018-08-13T12:00:36.275Z,91.70
2018-08-13T12:03:04.916Z,92.20
2018-08-13T12:05:33.031Z,92.70
2018-08-13T12:08:01.184Z,93.60
2018-08-13T12:10:29.684Z,93.00
2018-08-13T12:12:57.815Z,93.70
2018-08-13T12:15:25.919Z,93.10
2018-08-13T12:17:54.440Z,93.50
2018-08-13T12:20:22.585Z,94.00
2018-08-13T12:22:50.701Z,93.20
2018-08-13T12:25:20.960Z,94.10
2018-08-13T12:27:49.102Z,94.20
2018-08-13T12:30:17.516Z,93.70
2018-08-13T12:32:45.711Z,92.80
2018-08-13T12:35:14.099Z,92.00
2018-08-13T12:37:42.240Z,90.40
2018-08-13T12:40:10.730Z,90.30
2018-08-13T12:42:40.135Z,90.00
2018-08-13T12:45:10.184Z,90.90
2018-08-13T12:47:38.431Z,91.20
2018-08-13T12:50:09.096Z,91.40
2018-08-13T12:52:37.504Z,91.60
2018-08-13T12:55:06.945Z,92.30
2018-08-13T12:57:35.135Z,92.00
2018-08-13T13:00:04.024Z,91.40
2018-08-13T13:02:32.142Z,90.80
2018-08-13T13:05:00.300Z,90.50
2018-08-13T13:07:28.451Z,91.10
2018-08-13T13:09:56.571Z,91.80
2018-08-13T13:12:24.802Z,91.90
2018-08-13T13:14:52.973Z,91.80
2018-08-13T13:17:21.120Z,91.50
2018-08-13T13:19:49.333Z,91.40
2018-08-13T13:22:18.134Z,91.40
2018-08-13T13:24:46.325Z,90.90
2018-08-13T13:27:14.451Z,90.50
2018-08-13T13:29:42.592Z,90.00
2018-08-13T13:32:10.774Z,91.00
2018-08-13T13:34:39.198Z,90.60
2018-08-13T13:37:07.542Z,91.80
2018-08-13T13:39:35.684Z,92.80
2018-08-13T13:42:03.971Z,94.10
2018-08-13T13:44:32.119Z,94.90
2018-08-13T13:47:00.352Z,95.10
2018-08-13T13:49:28.501Z,95.20
2018-08-13T13:51:56.738Z,95.80
2018-08-13T13:54:24.831Z,96.80
2018-08-13T13:56:52.957Z,97.00
2018-08-13T13:59:21.105Z,97.30
2018-08-13T14:01:50.120Z,98.00
2018-08-13T14:04:18.368Z,97.40
2018-08-13T14:06:46.585Z,98.30
2018-08-13T14:09:14.735Z,97.30
2018-08-13T14:11:42.898Z,96.70
2018-08-13T14:14:11.608Z,95.70
2018-08-13T14:16:39.738Z,96.50
2018-08-13T14:19:08.271Z,96.50
2018-08-13T14:21:36.416Z,95.10
2018-08-13T14:24:04.527Z,92.50
2018-08-13T14:26:32.659Z,90.70
2018-08-13T14:29:01.004Z,90.00
2018-08-13T14:31:29.190Z,86.80
2018-08-13T14:33:57.273Z,86.80
2018-08-13T14:36:25.495Z,86.60
2018-08-13T14:38:53.624Z,83.70
2018-08-13T14:41:21.808Z,84.20
2018-08-13T14:43:49.972Z,81.80
2018-08-13T14:46:18.150Z,81.80
2018-08-13T14:48:46.325Z,82.40
2018-08-13T14:51:14.576Z,86.90
2018-08-13T14:53:42.635Z,88.60
2018-08-13T14:56:10.771Z,88.70
2018-08-13T14:58:39.763Z,89.40
2018-08-13T15:01:08.012Z,89.60
2018-08-13T15:03:36.182Z,88.40
2018-08-13T15:06:04.311Z,90.00
2018-08-13T15:08:32.460Z,92.70
2018-08-13T15:11:00.633Z,95.50
2018-08-13T15:13:29.187Z,97.30
2018-08-13T15:15:57.361Z,98.00
2018-08-13T15:18:25.566Z,98.60
2018-08-13T15:20:54.720Z,98.80
2018-08-13T15:23:22.980Z,97.90
2018-08-13T15:25:51.127Z,96.70
2018-08-13T15:28:19.346Z,98.00
2018-08-13T15:30:47.450Z,97.90
2018-08-13T15:33:15.715Z,97.10
2018-08-13T15:35:43.859Z,97.60
2018-08-13T15:38:12.067Z,96.30
2018-08-13T15:40:40.235Z,96.20
2018-08-13T15:43:08.388Z,96.50
2018-08-13T15:45:36.658Z,96.90
2018-08-13T15:48:05.013Z,96.50
2018-08-13T15:50:33.007Z,96.00
2018-08-13T15:53:01.183Z,96.20
2018-08-13T15:55:29.414Z,96.00
2018-08-13T15:57:57.509Z,94.60
2018-08-13T16:00:26.911Z,96.50
2018-08-13T16:02:55.262Z,96.10
2018-08-13T16:05:23.508Z,94.50
2018-08-13T16:07:52.255Z,95.70
2018-08-13T16:10:20.443Z,94.80
2018-08-13T16:12:48.626Z,94.90
2018-08-13T16:15:16.854Z,95.00
2018-08-13T16:17:45.051Z,95.60
2018-08-13T16:20:15.210Z,96.10
2018-08-13T16:22:44.371Z,95.70
2018-08-13T16:25:13.184Z,96.10
2018-08-13T16:27:41.598Z,97.00
2018-08-13T16:30:28.443Z,96.70
2018-08-13T16:32:56.604Z,96.30
2018-08-13T16:35:25.321Z,97.10
2018-08-13T16:37:53.596Z,96.20
2018-08-13T16:40:21.748Z,96.10
2018-08-13T16:42:50.460Z,96.10
2018-08-13T16:45:19.624Z,96.20
2018-08-13T16:47:47.829Z,95.20
2018-08-13T16:50:27.284Z,95.20
2018-08-13T16:52:56.583Z,95.50
2018-08-13T16:55:25.548Z,95.10
2018-08-13T16:57:53.688Z,95.70
2018-08-13T17:00:23.770Z,95.20
2018-08-13T17:02:52.130Z,95.60
2018-08-13T17:05:20.379Z,94.50
2018-08-13T17:07:48.615Z,94.50
2018-08-13T17:10:21.895Z,94.00
2018-08-13T17:12:50.564Z,95.20
2018-08-13T17:15:19.044Z,95.70
2018-08-13T17:17:48.964Z,95.00
2018-08-13T17:20:19.074Z,95.10
2018-08-13T17:22:47.308Z,94.70
2018-08-13T17:25:16.023Z,95.00
2018-08-13T17:27:44.550Z,94.60
2018-08-13T17:30:15.116Z,94.90
2018-08-13T17:32:43.348Z,94.20
2018-08-13T17:35:11.694Z,94.40
2018-08-13T17:37:40.127Z,94.30
2018-08-13T17:40:12.027Z,94.90
2018-08-13T17:42:40.271Z,95.00
2018-08-13T17:45:09.444Z,94.40
2018-08-13T17:47:37.925Z,94.30
2018-08-13T17:50:07.539Z,94.40
2018-08-13T17:52:36.004Z,94.10
2018-08-13T17:55:04.160Z,94.70
2018-08-13T17:57:32.319Z,94.60
2018-08-13T18:00:00.453Z,94.30
2018-08-13T18:02:28.611Z,94.20
2018-08-13T18:04:56.810Z,93.50
2018-08-13T18:07:26.635Z,93.90
2018-08-13T18:09:55.156Z,93.30
2018-08-13T18:12:23.284Z,93.70
2018-08-13T18:14:51.416Z,93.40
2018-08-13T18:17:19.591Z,93.10
2018-08-13T18:19:47.818Z,93.60
2018-08-13T18:22:15.954Z,93.20
2018-08-13T18:24:44.099Z,92.80
2018-08-13T18:27:12.232Z,92.60
2018-08-13T18:29:40.356Z,93.00
2018-08-13T18:32:08.574Z,92.60
2018-08-13T18:34:36.786Z,92.90
2018-08-13T18:37:04.955Z,93.00
2018-08-13T18:39:33.123Z,92.40
2018-08-13T18:42:01.296Z,92.90
2018-08-13T18:44:29.676Z,92.70
2018-08-13T18:46:57.869Z,93.00
2018-08-13T18:49:25.948Z,93.20
2018-08-13T18:51:54.855Z,93.60
2018-08-13T18:54:22.964Z,93.60
2018-08-13T18:56:51.071Z,93.80
2018-08-13T18:59:19.230Z,93.90
2018-08-13T19:01:47.384Z,93.70
2018-08-13T19:04:15.536Z,93.60
2018-08-13T19:06:43.731Z,93.70
2018-08-13T19:09:11.848Z,93.50
2018-08-13T19:11:39.977Z,93.80
2018-08-13T19:14:08.118Z,93.80
2018-08-13T19:16:36.249Z,94.30
2018-08-13T19:19:04.408Z,94.40
2018-08-13T19:21:32.597Z,94.70
2018-08-13T19:24:00.717Z,94.70
2018-08-13T19:26:28.984Z,94.40
2018-08-13T19:28:57.192Z,94.50
2018-08-13T19:31:25.309Z,94.70
2018-08-13T19:33:53.444Z,94.80
2018-08-13T19:36:21.576Z,94.50
2018-08-13T19:38:49.730Z,94.80
2018-08-13T19:41:17.876Z,94.90
2018-08-13T19:43:46.025Z,94.80
2018-08-13T19:46:14.159Z,94.70
2018-08-13T19:48:42.346Z,94.60
2018-08-13T19:51:10.549Z,94.60
2018-08-13T19:53:38.712Z,94.20
2018-08-13T19:56:07.109Z,94.30
2018-08-13T19:58:35.265Z,94.20
2018-08-13T20:01:03.451Z,94.40
2018-08-13T20:03:31.607Z,94.40
2018-08-13T20:06:00.123Z,94.40
2018-08-13T20:08:28.268Z,94.20
2018-08-13T20:10:56.493Z,94.20
2018-08-13T20:13:24.672Z,94.30
2018-08-13T20:15:52.788Z,94.20
2018-08-13T20:18:20.922Z,94.60
2018-08-13T20:20:49.036Z,94.50
2018-08-13T20:23:17.272Z,94.50
2018-08-13T20:25:45.466Z,94.80
2018-08-13T20:28:13.597Z,94.80
2018-08-13T20:30:41.739Z,95.20
2018-08-13T20:33:09.922Z,95.40
2018-08-13T20:35:38.062Z,94.90
2018-08-13T20:38:06.219Z,95.50
2018-08-13T20:40:34.369Z,95.60
2018-08-13T20:43:02.493Z,95.80
2018-08-13T20:45:30.620Z,96.00
2018-08-13T20:47:58.763Z,95.90
2018-08-13T20:50:26.903Z,96.20
2018-08-13T20:52:55.628Z,96.40
2018-08-13T20:55:26.424Z,96.50
2018-08-13T20:57:55.531Z,96.60
2018-08-13T21:00:25.406Z,96.30
2018-08-13T21:02:53.555Z,96.60
2018-08-13T21:05:21.716Z,96.40
2018-08-13T21:07:50.541Z,96.20
2018-08-13T21:10:21.449Z,96.50
2018-08-13T21:12:49.902Z,96.30
2018-08-13T21:15:18.281Z,96.40
2018-08-13T21:17:46.839Z,96.40
2018-08-13T21:20:19.313Z,96.30
2018-08-13T21:22:47.694Z,96.50
2018-08-13T21:25:15.996Z,96.50
2018-08-13T21:27:44.421Z,96.70
2018-08-13T21:30:12.666Z,96.60
2018-08-13T21:32:41.723Z,96.40
2018-08-13T21:35:10.225Z,96.20
2018-08-13T21:37:38.533Z,96.40
2018-08-13T21:40:08.085Z,96.20
2018-08-13T21:42:36.293Z,96.90
2018-08-13T21:45:05.219Z,96.60
2018-08-13T21:47:33.379Z,97.10
2018-08-13T21:50:02.284Z,97.10
2018-08-13T21:52:30.442Z,96.70
2018-08-13T21:54:59.577Z,96.60
2018-08-13T21:57:27.711Z,96.30
2018-08-13T21:59:56.222Z,96.50
2018-08-13T22:02:24.360Z,96.70
2018-08-13T22:04:52.498Z,96.50
2018-08-13T22:07:20.757Z,96.70
2018-08-13T22:09:49.087Z,96.50
2018-08-13T22:12:17.243Z,97.10
2018-08-13T22:14:45.584Z,96.70
2018-08-13T22:17:13.707Z,96.90
2018-08-13T22:19:41.933Z,96.30
2018-08-13T22:22:10.061Z,96.30
2018-08-13T22:24:49.607Z,96.50
2018-08-13T22:27:17.761Z,96.50
2018-08-13T22:29:45.922Z,96.50
2018-08-13T22:34:55.257Z,96.40
2018-08-13T22:37:23.441Z,96.20
2018-08-13T22:39:51.562Z,96.30
2018-08-13T22:42:19.708Z,96.10
2018-08-13T22:44:47.848Z,96.30
2018-08-13T22:47:16.023Z,96.20
2018-08-13T22:49:44.236Z,96.10
2018-08-13T22:52:12.484Z,96.10
2018-08-13T22:54:40.585Z,95.90
2018-08-13T22:57:08.768Z,96.10
2018-08-13T22:59:36.920Z,96.30
2018-08-13T23:02:05.260Z,96.50
2018-08-13T23:04:33.497Z,96.30
2018-08-13T23:07:01.681Z,96.40
2018-08-13T23:09:29.896Z,96.50
2018-08-13T23:11:58.109Z,96.80
2018-08-13T23:14:26.326Z,97.30
2018-08-13T23:16:54.498Z,97.00
2018-08-13T23:19:22.699Z,96.80
2018-08-13T23:21:50.886Z,96.90
2018-08-13T23:24:20.064Z,97.20
2018-08-13T23:26:48.260Z,97.40
2018-08-13T23:29:16.488Z,97.00
2018-08-13T23:31:44.639Z,97.00
2018-08-13T23:34:12.852Z,96.60
2018-08-13T23:36:41.019Z,96.70
2018-08-13T23:39:11.661Z,96.90
2018-08-13T23:41:39.945Z,96.60
2018-08-13T23:44:08.439Z,96.80
2018-08-13T23:46:36.619Z,96.60
2018-08-13T23:49:04.775Z,96.80
2018-08-13T23:51:33.018Z,96.20
2018-08-13T23:54:01.247Z,96.10
2018-08-13T23:56:29.387Z,96.40
2018-08-13T23:58:57.528Z,96.60
